Time;durP1;ratioP1;P1;durP2;ratioP2;P2;SDS_P1;SDS_P2;PMS_P1;PMS_P2;Temp;Humidity;BMP_temperature;BMP_pressure;BME280_temperature;BME280_humidity;BME280_pressure;Samples;Min_cycle;Max_cycle;Signal;HPM_P1;HPM_P2
2020/12/24 00:01:01;;;;;;;8.25;2.08;;;10.90;99.90;;;;;;4135942;28;20039;-70
2020/12/24 00:03:02;;;;;;;10.57;2.55;;;10.90;99.90;;;;;;4135684;28;20118;-70
2020/12/24 00:05:03;;;;;;;8.93;1.88;;;10.80;99.90;;;;;;4149626;28;20076;-70
2020/12/24 00:07:04;;;;;;;4.50;1.90;;;10.80;99.90;;;;;;4154243;28;20076;-70
2020/12/24 00:09:04;;;;;;;7.75;1.95;;;10.70;99.90;;;;;;4143084;28;20497;-70
2020/12/24 00:11:08;;;;;;;9.10;1.80;;;10.70;99.90;;;;;;4124835;28;20482;-70
2020/12/24 00:13:10;;;;;;;11.90;2.45;;;10.70;99.90;;;;;;4131387;28;20022;-71
2020/12/24 00:15:11;;;;;;;8.18;1.95;;;10.70;99.90;;;;;;4118501;28;20047;-70
2020/12/24 00:17:11;;;;;;;11.93;1.85;;;10.60;99.90;;;;;;4137780;28;20037;-70
2020/12/24 00:19:12;;;;;;;11.73;2.25;;;10.60;99.90;;;;;;4141927;28;20140;-70
2020/12/24 00:21:12;;;;;;;8.60;1.83;;;10.60;99.90;;;;;;4135619;28;20034;-70
2020/12/24 00:23:13;;;;;;;14.10;2.85;;;10.50;99.90;;;;;;4137177;28;20062;-70
2020/12/24 00:25:14;;;;;;;8.27;2.20;;;10.50;99.90;;;;;;4133888;28;20041;-70
2020/12/24 00:27:15;;;;;;;6.97;1.90;;;10.50;99.90;;;;;;4139179;28;20057;-70
2020/12/24 00:29:16;;;;;;;8.52;1.90;;;10.50;99.90;;;;;;4105734;28;20118;-70
2020/12/24 00:31:17;;;;;;;6.75;1.75;;;10.50;99.90;;;;;;4140344;28;20046;-70
2020/12/24 00:33:17;;;;;;;6.60;1.88;;;10.50;99.90;;;;;;4143311;28;20033;-70
2020/12/24 00:35:18;;;;;;;6.55;1.73;;;10.50;99.90;;;;;;4135369;28;20030;-70
2020/12/24 00:37:19;;;;;;;7.88;1.85;;;10.50;99.90;;;;;;4141757;28;20084;-70
2020/12/24 00:39:19;;;;;;;8.32;1.85;;;10.40;99.90;;;;;;4135468;28;20085;-70
2020/12/24 00:41:20;;;;;;;10.77;1.85;;;10.40;99.90;;;;;;4141007;28;20065;-70
2020/12/24 00:43:22;;;;;;;10.70;2.28;;;10.30;99.90;;;;;;4154806;28;20033;-70
2020/12/24 00:45:22;;;;;;;10.55;1.90;;;10.30;99.90;;;;;;4126929;28;20061;-70
2020/12/24 00:47:23;;;;;;;12.57;2.10;;;10.30;99.90;;;;;;4137303;28;20478;-71
2020/12/24 00:49:23;;;;;;;9.35;1.92;;;10.30;99.90;;;;;;4134510;28;20039;-70
2020/12/24 00:51:24;;;;;;;10.13;2.45;;;10.30;99.90;;;;;;4147100;28;20211;-70
2020/12/24 00:53:24;;;;;;;10.55;1.58;;;10.20;99.90;;;;;;4142411;28;20042;-70
2020/12/24 00:55:25;;;;;;;6.60;2.05;;;10.20;99.90;;;;;;4135155;28;20065;-70
2020/12/24 00:57:26;;;;;;;9.50;2.33;;;10.20;99.90;;;;;;4143195;28;20524;-70
2020/12/24 00:59:26;;;;;;;12.80;1.83;;;10.20;99.90;;;;;;4134751;28;20046;-70
2020/12/24 01:01:27;;;;;;;13.80;2.28;;;10.20;99.90;;;;;;4139183;28;20141;-70
2020/12/24 01:03:27;;;;;;;8.57;2.20;;;10.20;99.90;;;;;;4139235;28;20060;-70
2020/12/24 01:05:28;;;;;;;10.38;1.98;;;10.20;99.90;;;;;;4134654;28;20042;-70
2020/12/24 01:07:28;;;;;;;7.93;1.85;;;10.20;99.90;;;;;;4156575;28;20556;-70
2020/12/24 01:09:29;;;;;;;7.78;1.80;;;10.20;99.90;;;;;;4141805;28;20038;-70
2020/12/24 01:11:31;;;;;;;10.27;2.17;;;10.20;99.90;;;;;;4135256;28;20026;-71
2020/12/24 01:13:31;;;;;;;11.63;2.00;;;10.20;99.90;;;;;;4142043;28;20088;-70
2020/12/24 01:15:32;;;;;;;11.02;2.00;;;10.20;99.90;;;;;;4149314;28;20038;-70
2020/12/24 01:17:33;;;;;;;12.77;2.47;;;10.10;99.90;;;;;;4143315;28;20030;-70
2020/12/24 01:19:33;;;;;;;15.27;3.00;;;10.10;99.90;;;;;;4134246;28;20101;-70
2020/12/24 01:21:34;;;;;;;7.25;2.08;;;10.10;99.90;;;;;;4135644;28;20030;-70
2020/12/24 01:23:34;;;;;;;9.32;2.25;;;10.10;99.90;;;;;;4141874;28;20026;-70
2020/12/24 01:25:35;;;;;;;5.93;1.83;;;10.20;99.90;;;;;;4140496;28;20145;-70
2020/12/24 01:27:35;;;;;;;12.43;2.33;;;10.10;99.90;;;;;;4142925;28;20041;-70
2020/12/24 01:29:36;;;;;;;8.13;1.98;;;10.10;99.90;;;;;;4140691;28;20026;-70
2020/12/24 01:31:36;;;;;;;11.02;2.35;;;10.00;99.90;;;;;;4135809;28;20466;-70
2020/12/24 01:33:37;;;;;;;12.27;2.60;;;10.00;99.90;;;;;;4147488;28;20046;-70
2020/12/24 01:35:38;;;;;;;8.48;2.38;;;10.10;99.90;;;;;;4134899;28;20029;-70
2020/12/24 01:37:38;;;;;;;11.75;2.20;;;10.00;99.90;;;;;;4125183;28;20030;-70
2020/12/24 01:39:39;;;;;;;9.82;2.67;;;10.00;99.90;;;;;;4154870;28;20033;-70
2020/12/24 01:41:46;;;;;;;7.75;2.05;;;10.00;99.90;;;;;;4136357;28;20022;-70
2020/12/24 01:43:48;;;;;;;5.57;1.65;;;10.00;99.90;;;;;;4141741;28;20085;-70
2020/12/24 01:45:56;;;;;;;9.77;2.15;;;10.00;99.90;;;;;;4129926;28;20478;-70
2020/12/24 01:47:57;;;;;;;9.90;2.10;;;10.00;99.90;;;;;;4126232;28;20042;-70
2020/12/24 01:49:57;;;;;;;7.68;1.80;;;10.00;99.90;;;;;;4130540;28;20034;-70
2020/12/24 01:51:58;;;;;;;9.68;1.90;;;10.00;99.90;;;;;;4137054;28;20030;-70
2020/12/24 01:54:03;;;;;;;7.15;1.90;;;10.00;99.90;;;;;;4141853;28;20046;-70
2020/12/24 01:56:04;;;;;;;18.08;2.60;;;10.00;99.90;;;;;;4131640;28;20435;-70
2020/12/24 01:58:06;;;;;;;10.85;2.45;;;10.00;99.90;;;;;;4126117;28;20046;-70
2020/12/24 02:00:11;;;;;;;11.82;2.15;;;10.00;99.90;;;;;;4133292;28;20034;-70
2020/12/24 02:02:11;;;;;;;7.22;2.05;;;10.00;99.90;;;;;;4140904;28;20580;-70
2020/12/24 02:04:12;;;;;;;13.52;3.20;;;10.10;99.90;;;;;;4144929;28;20049;-70
2020/12/24 02:06:13;;;;;;;11.48;2.15;;;10.10;99.90;;;;;;4148935;28;20060;-70
2020/12/24 02:08:15;;;;;;;10.80;2.78;;;10.10;99.90;;;;;;4145352;28;20033;-70
2020/12/24 02:10:16;;;;;;;14.20;2.45;;;10.10;99.90;;;;;;4136876;28;20498;-70
2020/12/24 02:12:18;;;;;;;6.50;1.77;;;10.10;99.90;;;;;;4135877;28;20042;-70
2020/12/24 02:14:19;;;;;;;10.70;2.63;;;10.10;99.90;;;;;;4135346;28;20605;-70
2020/12/24 02:16:20;;;;;;;10.45;2.05;;;10.10;99.90;;;;;;4137269;28;20165;-70
2020/12/24 02:18:20;;;;;;;12.98;2.42;;;10.10;99.90;;;;;;4144750;28;20123;-70
2020/12/24 02:20:21;;;;;;;11.18;2.20;;;10.10;99.90;;;;;;4141228;28;20038;-70
2020/12/24 02:22:21;;;;;;;9.25;2.08;;;10.10;99.90;;;;;;4141335;28;20050;-70
2020/12/24 02:24:22;;;;;;;8.55;2.05;;;10.10;99.90;;;;;;4134681;28;20033;-70
2020/12/24 02:26:23;;;;;;;11.23;2.30;;;10.10;99.90;;;;;;4143850;28;20215;-70
2020/12/24 02:28:24;;;;;;;8.35;1.95;;;10.10;99.90;;;;;;4127475;28;20042;-70
2020/12/24 02:30:24;;;;;;;8.48;1.90;;;10.10;99.90;;;;;;4144538;28;20032;-70
2020/12/24 02:32:25;;;;;;;8.27;2.15;;;10.10;99.90;;;;;;4142025;28;20038;-70
2020/12/24 02:34:26;;;;;;;12.48;2.28;;;10.00;99.90;;;;;;4144630;28;20610;-70
2020/12/24 02:36:27;;;;;;;12.27;2.58;;;10.00;99.90;;;;;;4136447;28;20062;-70
2020/12/24 02:38:27;;;;;;;10.55;2.50;;;10.00;99.90;;;;;;4144896;28;20502;-70
2020/12/24 02:40:28;;;;;;;8.05;2.25;;;9.90;99.90;;;;;;4143751;28;20034;-70
2020/12/24 02:42:29;;;;;;;10.63;2.53;;;9.90;99.90;;;;;;4149740;28;20034;-70
2020/12/24 02:44:29;;;;;;;10.60;2.45;;;9.90;99.90;;;;;;4132498;28;20032;-70
2020/12/24 02:46:30;;;;;;;9.98;2.40;;;9.90;99.90;;;;;;4136727;28;20042;-70
2020/12/24 02:48:31;;;;;;;12.93;2.28;;;9.90;99.90;;;;;;4143722;28;20054;-70
2020/12/24 02:50:31;;;;;;;12.30;2.33;;;9.80;99.90;;;;;;4157951;28;20516;-70
2020/12/24 02:52:32;;;;;;;12.80;2.22;;;9.80;99.90;;;;;;4135134;28;20592;-70
2020/12/24 02:54:36;;;;;;;6.72;1.65;;;9.80;99.90;;;;;;4135887;28;20034;-70
2020/12/24 02:56:36;;;;;;;12.60;2.50;;;9.80;99.90;;;;;;4140367;28;20636;-70
2020/12/24 02:58:37;;;;;;;8.23;2.00;;;9.70;99.90;;;;;;4139249;28;20030;-70
2020/12/24 03:00:38;;;;;;;12.65;2.00;;;9.70;99.90;;;;;;4130488;28;20030;-70
2020/12/24 03:02:39;;;;;;;7.72;1.65;;;9.60;99.90;;;;;;4142639;28;20059;-70
2020/12/24 03:04:40;;;;;;;11.70;2.00;;;9.60;99.90;;;;;;4143585;28;20410;-70
2020/12/24 03:06:40;;;;;;;11.43;2.15;;;9.60;99.90;;;;;;4132605;28;20126;-70
2020/12/24 03:08:41;;;;;;;10.98;2.20;;;9.50;99.90;;;;;;4144301;28;20034;-70
2020/12/24 03:10:42;;;;;;;9.85;2.38;;;9.50;99.90;;;;;;4148027;28;20126;-70
2020/12/24 03:12:42;;;;;;;10.52;1.90;;;9.50;99.90;;;;;;4134416;28;20042;-70
2020/12/24 03:14:43;;;;;;;9.73;1.85;;;9.50;99.90;;;;;;4128360;28;20030;-70
2020/12/24 03:16:44;;;;;;;12.43;2.28;;;9.50;99.90;;;;;;4139654;28;20037;-70
2020/12/24 03:18:44;;;;;;;17.80;3.08;;;9.40;99.90;;;;;;4136097;28;20041;-70
2020/12/24 03:20:45;;;;;;;9.20;2.05;;;9.30;99.90;;;;;;4123819;28;20125;-70
2020/12/24 03:22:45;;;;;;;10.60;1.88;;;9.40;99.90;;;;;;4136194;28;20739;-70
2020/12/24 03:24:46;;;;;;;7.60;1.75;;;9.40;99.90;;;;;;4128851;28;20050;-70
2020/12/24 03:26:47;;;;;;;7.82;1.77;;;9.30;99.90;;;;;;4137315;28;20030;-70
2020/12/24 03:28:47;;;;;;;8.85;2.00;;;9.40;99.90;;;;;;4143827;28;20562;-70
2020/12/24 03:30:48;;;;;;;9.60;1.83;;;9.30;99.90;;;;;;4141666;28;20032;-70
2020/12/24 03:32:48;;;;;;;9.43;2.17;;;9.30;99.90;;;;;;4134414;28;20062;-70
2020/12/24 03:34:49;;;;;;;13.00;1.98;;;9.30;99.90;;;;;;4141530;28;20030;-70
2020/12/24 03:36:50;;;;;;;5.65;1.55;;;9.30;99.90;;;;;;4140036;28;20034;-70
2020/12/24 03:38:50;;;;;;;10.65;2.08;;;9.30;99.90;;;;;;4139034;28;20042;-70
2020/12/24 03:40:51;;;;;;;6.38;1.67;;;9.40;99.90;;;;;;4142930;28;20038;-70
2020/12/24 03:42:51;;;;;;;9.90;1.88;;;9.40;99.90;;;;;;4135848;28;20029;-70
2020/12/24 03:44:52;;;;;;;9.75;1.85;;;9.40;99.90;;;;;;4143644;28;20163;-70
2020/12/24 03:46:53;;;;;;;7.15;2.13;;;9.40;99.90;;;;;;4139420;28;20039;-70
2020/12/24 03:48:54;;;;;;;9.00;1.88;;;9.40;99.90;;;;;;4137840;28;20361;-70
2020/12/24 03:50:54;;;;;;;8.65;2.05;;;9.30;99.90;;;;;;4140940;28;20374;-70
2020/12/24 03:52:55;;;;;;;12.35;2.17;;;9.30;99.90;;;;;;4134148;28;20030;-70
2020/12/24 03:54:55;;;;;;;9.13;2.05;;;9.30;99.90;;;;;;4143859;28;20094;-70
2020/12/24 03:56:56;;;;;;;6.38;1.63;;;9.30;99.90;;;;;;4137232;28;20031;-70
2020/12/24 03:58:56;;;;;;;9.55;2.15;;;9.30;99.90;;;;;;4127933;28;20391;-70
2020/12/24 04:00:57;;;;;;;7.25;1.73;;;9.40;99.90;;;;;;4132183;28;20113;-70
2020/12/24 04:02:57;;;;;;;11.43;1.85;;;9.40;99.90;;;;;;4135733;28;20037;-70
2020/12/24 04:04:58;;;;;;;9.52;2.10;;;9.30;99.90;;;;;;4158051;28;20033;-70
2020/12/24 04:06:58;;;;;;;8.05;2.28;;;9.40;99.90;;;;;;4138022;28;20035;-70
2020/12/24 04:08:59;;;;;;;11.55;2.55;;;9.40;99.90;;;;;;4139372;28;20030;-70
2020/12/24 04:11:03;;;;;;;8.80;2.38;;;9.40;99.90;;;;;;4132077;28;20095;-70
2020/12/24 04:13:04;;;;;;;5.57;1.80;;;9.40;99.90;;;;;;4142657;28;20397;-70
2020/12/24 04:15:05;;;;;;;8.48;2.17;;;9.40;99.90;;;;;;4141617;28;20510;-70
2020/12/24 04:17:05;;;;;;;9.80;2.20;;;9.30;99.90;;;;;;4143188;28;20052;-70
2020/12/24 04:19:06;;;;;;;6.60;1.80;;;9.30;99.90;;;;;;4148078;28;20184;-70
2020/12/24 04:21:07;;;;;;;11.75;2.63;;;9.30;99.90;;;;;;4140917;28;20033;-70
2020/12/24 04:23:07;;;;;;;8.90;2.30;;;9.30;99.90;;;;;;4139171;28;20402;-70
2020/12/24 04:25:08;;;;;;;9.20;2.28;;;9.30;99.90;;;;;;4128075;28;20046;-70
2020/12/24 04:27:08;;;;;;;15.43;2.83;;;9.30;99.90;;;;;;4139089;28;20125;-70
2020/12/24 04:29:12;;;;;;;6.60;1.90;;;9.30;99.90;;;;;;4134155;28;20034;-70
2020/12/24 04:31:12;;;;;;;9.10;1.77;;;9.30;99.90;;;;;;4129210;28;20030;-70
2020/12/24 04:33:14;;;;;;;11.60;2.08;;;9.40;99.90;;;;;;4135377;28;20610;-70
2020/12/24 04:35:14;;;;;;;7.53;1.60;;;9.30;99.90;;;;;;4142209;28;20690;-70
2020/12/24 04:37:18;;;;;;;8.73;1.83;;;9.30;99.90;;;;;;4135608;28;20034;-70
2020/12/24 04:39:19;;;;;;;8.05;1.60;;;9.40;99.90;;;;;;4135102;28;20045;-70
2020/12/24 04:41:19;;;;;;;7.55;1.63;;;9.40;99.90;;;;;;4142393;28;20045;-70
2020/12/24 04:43:20;;;;;;;6.03;1.67;;;9.40;99.90;;;;;;4133564;28;20036;-70
2020/12/24 04:45:22;;;;;;;10.15;1.75;;;9.30;99.90;;;;;;4143021;28;20038;-70
2020/12/24 04:47:23;;;;;;;12.97;2.40;;;9.40;99.90;;;;;;4148708;28;20042;-70
2020/12/24 04:49:25;;;;;;;7.05;1.50;;;9.40;99.90;;;;;;4130408;28;20096;-70
2020/12/24 04:51:25;;;;;;;11.25;2.42;;;9.40;99.90;;;;;;4136289;28;20414;-70
2020/12/24 04:53:26;;;;;;;11.95;2.60;;;9.40;99.90;;;;;;4134696;28;20049;-70
2020/12/24 04:55:27;;;;;;;6.18;1.55;;;9.30;99.90;;;;;;4137466;28;20418;-70
2020/12/24 04:57:29;;;;;;;6.13;1.70;;;9.40;99.90;;;;;;4135774;28;20706;-70
2020/12/24 04:59:30;;;;;;;4.35;1.35;;;9.40;99.90;;;;;;4135365;28;20041;-70
2020/12/24 05:01:31;;;;;;;9.00;1.58;;;9.40;99.90;;;;;;4154476;28;20061;-70
2020/12/24 05:03:31;;;;;;;7.82;1.58;;;9.40;99.90;;;;;;4135041;28;20474;-70
2020/12/24 05:05:33;;;;;;;11.38;2.35;;;9.40;99.90;;;;;;4128202;28;20038;-70
2020/12/24 05:07:33;;;;;;;7.47;1.42;;;9.30;99.90;;;;;;4145900;28;20033;-70
2020/12/24 05:09:35;;;;;;;7.97;1.75;;;9.40;99.90;;;;;;4132762;28;20097;-70
2020/12/24 05:11:37;;;;;;;3.63;1.42;;;9.40;99.90;;;;;;4129883;28;20420;-70
2020/12/24 05:13:37;;;;;;;11.07;2.03;;;9.40;99.90;;;;;;4148911;28;20497;-70
2020/12/24 05:15:38;;;;;;;5.93;1.75;;;9.40;99.90;;;;;;4130838;28;20042;-70
2020/12/24 05:17:38;;;;;;;8.27;1.90;;;9.40;99.90;;;;;;4135353;28;20384;-70
2020/12/24 05:19:48;;;;;;;11.50;1.90;;;9.40;99.90;;;;;;4140084;28;20076;-70
2020/12/24 05:21:48;;;;;;;5.88;1.23;;;9.40;99.90;;;;;;4132247;28;20034;-70
2020/12/24 05:23:49;;;;;;;9.80;2.45;;;9.40;99.90;;;;;;4133637;28;20590;-70
2020/12/24 05:25:50;;;;;;;7.30;1.67;;;9.40;99.90;;;;;;4138989;28;20046;-70
2020/12/24 05:27:57;;;;;;;8.48;1.83;;;9.40;99.90;;;;;;4141793;28;20140;-70
2020/12/24 05:29:58;;;;;;;5.78;1.67;;;9.40;99.90;;;;;;4134240;28;20500;-70
2020/12/24 05:31:58;;;;;;;5.70;1.52;;;9.40;99.90;;;;;;4142175;28;20037;-70
2020/12/24 05:34:00;;;;;;;10.10;2.20;;;9.50;99.90;;;;;;4152002;28;20034;-70
2020/12/24 05:36:19;;;;;;;8.85;1.42;;;9.40;99.90;;;;;;4140038;28;20038;-70
2020/12/24 05:38:32;;;;;;;7.40;1.83;;;9.40;99.90;;;;;;4143901;28;20125;-70
2020/12/24 05:40:33;;;;;;;8.32;1.70;;;9.50;99.90;;;;;;4135390;28;20034;-70
2020/12/24 05:42:49;;;;;;;11.40;2.10;;;9.40;99.90;;;;;;4133057;28;20033;-70
2020/12/24 05:44:50;;;;;;;9.10;1.92;;;9.40;99.90;;;;;;4139907;28;20038;-70
2020/12/24 05:46:52;;;;;;;6.40;1.83;;;9.30;99.90;;;;;;4143621;28;20044;-70
2020/12/24 05:48:53;;;;;;;6.57;1.85;;;9.30;99.90;;;;;;4126640;28;20043;-70
2020/12/24 05:50:54;;;;;;;6.97;2.08;;;9.30;99.90;;;;;;4144743;28;20120;-70
2020/12/24 05:53:11;;;;;;;7.75;2.20;;;9.20;99.90;;;;;;4159632;28;20068;-70
2020/12/24 05:55:11;;;;;;;8.52;1.70;;;9.20;99.90;;;;;;4136852;28;20116;-70
2020/12/24 05:57:13;;;;;;;11.10;2.22;;;9.20;99.90;;;;;;4143830;28;20092;-70
2020/12/24 05:59:19;;;;;;;14.27;2.90;;;9.10;99.90;;;;;;4136318;28;20393;-70
2020/12/24 06:01:26;;;;;;;7.53;1.92;;;9.20;99.90;;;;;;4143273;28;20116;-70
2020/12/24 06:03:35;;;;;;;4.45;1.20;;;9.20;99.90;;;;;;4144275;28;20034;-70
2020/12/24 06:05:54;;;;;;;8.85;1.95;;;9.20;99.90;;;;;;4139489;28;20057;-71
2020/12/24 06:08:15;;;;;;;7.82;1.65;;;9.10;99.90;;;;;;4150922;28;20061;-70
2020/12/24 06:10:25;;;;;;;6.82;1.63;;;9.10;99.90;;;;;;4136865;28;20054;-70
2020/12/24 06:12:26;;;;;;;7.93;1.30;;;9.00;99.90;;;;;;4143715;28;20478;-70
2020/12/24 06:14:27;;;;;;;5.80;1.58;;;9.00;99.90;;;;;;4144380;28;20033;-70
2020/12/24 06:16:32;;;;;;;5.88;1.38;;;9.00;99.90;;;;;;4137785;28;20064;-70
2020/12/24 06:18:38;;;;;;;9.27;2.15;;;9.00;99.90;;;;;;4140592;28;20054;-70
2020/12/24 06:20:43;;;;;;;11.00;2.08;;;9.00;99.90;;;;;;4138343;28;20041;-70
2020/12/24 06:22:44;;;;;;;4.85;1.35;;;9.00;99.90;;;;;;4124875;28;20048;-70
2020/12/24 06:24:53;;;;;;;7.45;1.58;;;9.00;99.90;;;;;;4135848;28;20050;-70
2020/12/24 06:26:56;;;;;;;6.10;1.45;;;9.00;99.90;;;;;;4138038;28;20034;-70
2020/12/24 06:29:02;;;;;;;8.20;1.92;;;9.00;99.90;;;;;;4137690;28;20030;-71
2020/12/24 06:31:03;;;;;;;7.00;1.58;;;9.00;99.90;;;;;;4134669;28;20126;-70
2020/12/24 06:33:09;;;;;;;3.28;1.10;;;8.90;99.90;;;;;;4134153;28;20037;-70
2020/12/24 06:35:09;;;;;;;8.88;1.73;;;9.00;99.90;;;;;;4136196;28;20468;-70
2020/12/24 06:37:13;;;;;;;8.93;2.35;;;9.00;99.90;;;;;;4137692;28;20106;-71
2020/12/24 06:39:44;;;;;;;5.30;1.38;;;9.00;99.90;;;;;;4111874;28;20030;-70
2020/12/24 06:41:44;;;;;;;6.80;1.48;;;9.00;99.90;;;;;;4138311;28;20159;-71
2020/12/24 06:43:46;;;;;;;4.75;1.58;;;9.00;99.90;;;;;;4138783;28;20034;-70
2020/12/24 06:45:46;;;;;;;8.02;1.73;;;9.00;99.90;;;;;;4141540;28;21651;-70
2020/12/24 06:48:12;;;;;;;4.00;1.30;;;9.00;99.90;;;;;;4139303;28;20695;-70
2020/12/24 06:50:37;;;;;;;7.05;1.58;;;9.10;99.90;;;;;;4138481;28;20060;-70
2020/12/24 06:52:38;;;;;;;6.97;1.63;;;9.10;99.90;;;;;;4135989;28;20034;-70
2020/12/24 06:54:39;;;;;;;7.85;1.58;;;9.10;99.90;;;;;;4136462;28;20042;-70
2020/12/24 06:56:39;;;;;;;6.28;1.70;;;9.10;99.90;;;;;;4136135;28;20064;-71
2020/12/24 06:58:41;;;;;;;8.25;1.45;;;9.10;99.90;;;;;;4137432;28;20026;-71
2020/12/24 07:01:00;;;;;;;7.57;1.75;;;9.10;99.90;;;;;;4137886;28;20030;-71
2020/12/24 07:03:25;;;;;;;8.35;1.70;;;9.10;99.90;;;;;;4156656;28;20509;-71
2020/12/24 07:05:41;;;;;;;7.18;1.38;;;9.10;99.90;;;;;;4150104;28;20092;-71
2020/12/24 07:07:47;;;;;;;3.50;1.02;;;9.20;99.90;;;;;;4137472;28;20144;-71
2020/12/24 07:09:48;;;;;;;8.10;1.48;;;9.20;99.90;;;;;;4152001;28;20096;-71
2020/12/24 07:11:50;;;;;;;5.88;1.55;;;9.20;99.90;;;;;;4131811;28;20533;-70
2020/12/24 07:13:52;;;;;;;3.28;1.13;;;9.10;99.90;;;;;;4140917;28;20061;-68
2020/12/24 07:15:52;;;;;;;11.50;2.53;;;9.20;99.90;;;;;;4143699;28;20111;-69
2020/12/24 07:17:55;;;;;;;3.08;0.77;;;9.20;99.90;;;;;;4134213;28;20034;-68
2020/12/24 07:19:56;;;;;;;0.50;0.38;;;9.00;99.90;;;;;;4134480;28;20034;-69
2020/12/24 07:21:56;;;;;;;1.70;0.60;;;8.80;99.90;;;;;;4138630;28;20092;-68
2020/12/24 07:24:01;;;;;;;0.55;0.50;;;8.60;99.90;;;;;;4137195;28;20430;-68
2020/12/24 07:26:05;;;;;;;1.02;0.55;;;8.40;99.90;;;;;;4138625;28;20041;-68
2020/12/24 07:28:14;;;;;;;2.38;0.50;;;8.30;99.90;;;;;;4131326;28;20041;-68
2020/12/24 07:30:15;;;;;;;1.17;0.68;;;8.10;99.90;;;;;;4129943;28;20038;-68
2020/12/24 07:32:19;;;;;;;1.77;0.40;;;8.00;99.90;;;;;;4143390;28;20100;-68
2020/12/24 07:34:27;;;;;;;0.60;0.60;;;7.90;99.90;;;;;;4134144;28;20052;-68
2020/12/24 07:36:29;;;;;;;0.50;0.50;;;7.80;99.90;;;;;;4142155;28;20049;-68
2020/12/24 07:38:30;;;;;;;2.35;1.35;;;7.70;99.90;;;;;;4135254;28;20041;-68
2020/12/24 07:40:31;;;;;;;6.90;1.73;;;7.60;99.90;;;;;;4138014;28;20068;-68
2020/12/24 07:42:32;;;;;;;1.98;1.60;;;7.50;99.90;;;;;;4139798;28;20029;-68
2020/12/24 07:44:38;;;;;;;1.73;1.52;;;7.50;99.90;;;;;;4143414;28;20045;-68
2020/12/24 07:46:39;;;;;;;1.30;1.20;;;7.40;99.90;;;;;;4142786;28;20497;-68
2020/12/24 07:48:40;;;;;;;2.30;1.50;;;7.40;99.90;;;;;;4137842;28;20050;-68
2020/12/24 07:50:41;;;;;;;1.50;1.40;;;7.40;99.90;;;;;;4137089;28;20542;-68
2020/12/24 07:52:45;;;;;;;1.40;0.98;;;7.30;99.90;;;;;;4143413;28;20044;-68
2020/12/24 07:54:46;;;;;;;1.27;0.68;;;7.30;99.90;;;;;;4138610;28;20145;-68
2020/12/24 07:56:47;;;;;;;1.30;0.77;;;7.20;99.90;;;;;;4135282;28;20038;-68
2020/12/24 07:59:02;;;;;;;0.47;0.40;;;7.10;99.90;;;;;;4135752;28;20038;-68
2020/12/24 08:01:05;;;;;;;0.57;0.40;;;7.10;99.90;;;;;;4135505;28;20042;-68
2020/12/24 08:03:07;;;;;;;0.68;0.38;;;7.00;99.90;;;;;;4137551;28;20023;-68
2020/12/24 08:05:07;;;;;;;0.15;0.15;;;6.90;99.90;;;;;;4135618;28;20034;-68
2020/12/24 08:07:09;;;;;;;0.30;0.30;;;6.90;99.90;;;;;;4134793;28;20054;-68
2020/12/24 08:09:10;;;;;;;0.52;0.38;;;6.90;99.90;;;;;;4139747;28;20034;-68
2020/12/24 08:11:11;;;;;;;0.28;0.20;;;7.00;99.90;;;;;;4139925;28;20050;-68
2020/12/24 08:13:12;;;;;;;0.88;0.45;;;6.90;99.90;;;;;;4132555;28;20390;-68
2020/12/24 08:15:16;;;;;;;0.40;0.35;;;6.90;99.90;;;;;;4138632;28;20364;-68
2020/12/24 08:17:40;;;;;;;0.40;0.40;;;6.80;99.90;;;;;;4135972;28;20042;-68
2020/12/24 08:19:47;;;;;;;0.30;0.20;;;6.70;99.90;;;;;;4132573;28;20033;-68
2020/12/24 08:21:58;;;;;;;0.20;0.20;;;6.70;99.90;;;;;;4147133;28;20041;-68
2020/12/24 08:24:03;;;;;;;0.43;0.20;;;6.70;99.90;;;;;;4121752;28;20034;-69
2020/12/24 08:26:05;;;;;;;0.93;0.40;;;6.60;99.90;;;;;;4135788;28;20161;-69
2020/12/24 08:28:07;;;;;;;3.45;0.28;;;6.60;99.90;;;;;;4134158;28;20034;-69
2020/12/24 08:30:09;;;;;;;0.93;0.40;;;6.60;99.90;;;;;;4135805;28;20041;-69
2020/12/24 08:32:10;;;;;;;0.30;0.30;;;6.60;99.90;;;;;;4131176;28;20531;-70
2020/12/24 08:34:10;;;;;;;0.70;0.47;;;6.50;99.90;;;;;;4149647;28;20105;-70
2020/12/24 08:36:15;;;;;;;0.70;0.30;;;6.50;99.90;;;;;;4129834;28;20034;-70
2020/12/24 08:38:18;;;;;;;1.10;0.77;;;6.50;99.90;;;;;;4139166;28;20045;-70
2020/12/24 08:40:25;;;;;;;;;;;6.50;99.90;;;;;;4141404;28;20041;-69
2020/12/24 08:42:30;;;;;;;0.47;0.47;;;6.50;99.90;;;;;;4136619;28;19917;-70
2020/12/24 08:44:31;;;;;;;0.75;0.50;;;6.40;99.90;;;;;;4141225;28;20401;-70
2020/12/24 08:46:32;;;;;;;0.70;0.60;;;6.40;99.90;;;;;;4138754;28;20088;-70
2020/12/24 08:48:34;;;;;;;2.05;0.50;;;6.40;99.90;;;;;;4131837;28;20111;-69
2020/12/24 08:50:36;;;;;;;0.75;0.60;;;6.40;99.90;;;;;;4130803;28;20120;-70
2020/12/24 08:52:38;;;;;;;0.60;0.55;;;6.40;99.90;;;;;;4140082;28;20397;-70
2020/12/24 08:54:55;;;;;;;0.45;0.30;;;6.40;99.90;;;;;;4140293;28;20395;-70
2020/12/24 08:56:56;;;;;;;0.40;0.40;;;6.40;99.90;;;;;;4140571;28;20109;-70
2020/12/24 08:58:56;;;;;;;0.95;0.60;;;6.50;99.90;;;;;;4140412;28;20501;-70
2020/12/24 09:01:06;;;;;;;0.65;0.40;;;6.50;99.90;;;;;;4139618;28;20439;-70
2020/12/24 09:03:24;;;;;;;0.63;0.60;;;6.50;99.90;;;;;;4136036;28;20037;-69
2020/12/24 09:05:25;;;;;;;1.10;0.70;;;6.50;99.90;;;;;;4137663;28;20037;-69
2020/12/24 09:07:28;;;;;;;0.77;0.57;;;6.50;99.90;;;;;;4139749;28;20038;-69
2020/12/24 09:09:29;;;;;;;1.48;0.63;;;6.60;99.90;;;;;;4131753;28;20042;-69
2020/12/24 09:11:31;;;;;;;1.15;0.50;;;6.50;99.90;;;;;;4137284;28;21558;-69
2020/12/24 09:13:31;;;;;;;0.93;0.55;;;6.50;99.90;;;;;;4135166;28;20113;-69
2020/12/24 09:15:32;;;;;;;0.40;0.30;;;6.60;99.90;;;;;;4137785;28;20069;-69
2020/12/24 09:17:33;;;;;;;0.77;0.63;;;6.60;99.90;;;;;;4157836;28;20029;-69
2020/12/24 09:19:34;;;;;;;0.50;0.50;;;6.60;99.90;;;;;;4140416;28;20391;-69
2020/12/24 09:21:36;;;;;;;0.90;0.60;;;6.70;99.90;;;;;;4140536;28;20189;-69
2020/12/24 09:23:38;;;;;;;1.35;0.70;;;6.70;99.90;;;;;;4137706;28;20410;-70
2020/12/24 09:25:47;;;;;;;1.95;0.95;;;6.70;99.90;;;;;;4142824;28;20058;-70
2020/12/24 09:27:47;;;;;;;2.55;0.70;;;6.70;99.90;;;;;;4143302;28;20087;-70
2020/12/24 09:29:48;;;;;;;0.70;0.65;;;6.70;99.90;;;;;;4139755;28;20386;-70
2020/12/24 09:31:57;;;;;;;0.73;0.60;;;6.70;99.90;;;;;;4119034;28;20208;-70
2020/12/24 09:33:58;;;;;;;3.13;0.63;;;6.60;99.90;;;;;;4135354;28;20061;-70
2020/12/24 09:35:58;;;;;;;0.70;0.40;;;6.70;99.90;;;;;;4143315;28;20091;-70
2020/12/24 09:37:59;;;;;;;1.05;0.57;;;6.60;99.90;;;;;;4143977;28;20117;-70
2020/12/24 09:39:59;;;;;;;0.85;0.70;;;6.60;99.90;;;;;;4141610;28;20034;-75
2020/12/24 09:42:00;;;;;;;0.90;0.70;;;6.60;99.90;;;;;;4134876;28;20026;-70
2020/12/24 09:44:01;;;;;;;0.85;0.70;;;6.60;99.90;;;;;;4135212;28;20568;-70
2020/12/24 09:46:02;;;;;;;1.80;0.70;;;6.60;99.90;;;;;;4136668;28;20053;-70
2020/12/24 09:48:03;;;;;;;0.50;0.40;;;6.60;99.90;;;;;;4140203;28;20286;-70
2020/12/24 09:50:05;;;;;;;0.80;0.70;;;6.60;99.90;;;;;;4141010;28;20096;-70
2020/12/24 09:52:05;;;;;;;0.63;0.63;;;6.60;99.90;;;;;;4142202;28;20030;-70
2020/12/24 09:54:07;;;;;;;0.65;0.60;;;6.60;99.90;;;;;;4140341;28;20084;-70
2020/12/24 09:56:08;;;;;;;0.80;0.63;;;6.60;99.90;;;;;;4132648;28;20040;-70
2020/12/24 09:58:08;;;;;;;0.70;0.65;;;6.60;99.90;;;;;;4136104;28;20277;-70
2020/12/24 10:00:10;;;;;;;2.47;0.52;;;6.50;99.90;;;;;;4135317;28;20118;-70
2020/12/24 10:02:11;;;;;;;2.28;0.65;;;6.50;99.90;;;;;;4136565;28;20042;-70
2020/12/24 10:04:11;;;;;;;0.70;0.50;;;6.60;99.90;;;;;;4136178;28;20091;-70
2020/12/24 10:06:12;;;;;;;0.60;0.40;;;6.60;99.90;;;;;;4137048;28;20037;-70
2020/12/24 10:08:13;;;;;;;0.52;0.50;;;6.60;99.90;;;;;;4137273;28;20104;-70
2020/12/24 10:10:13;;;;;;;1.13;0.52;;;6.60;99.90;;;;;;4142393;28;20048;-70
2020/12/24 10:12:15;;;;;;;0.90;0.60;;;6.60;99.90;;;;;;4136107;28;20505;-70
2020/12/24 10:14:16;;;;;;;0.65;0.52;;;6.60;99.90;;;;;;4137897;28;20030;-70
2020/12/24 10:16:17;;;;;;;0.40;0.40;;;6.60;99.90;;;;;;4141941;28;20042;-70
2020/12/24 10:18:17;;;;;;;0.40;0.40;;;6.60;99.90;;;;;;4140043;28;20477;-70
2020/12/24 10:20:18;;;;;;;1.00;0.52;;;6.60;99.90;;;;;;4142375;28;20056;-70
2020/12/24 10:22:19;;;;;;;0.43;0.43;;;6.60;99.90;;;;;;4136143;28;20105;-70
2020/12/24 10:24:21;;;;;;;1.23;0.70;;;6.60;99.90;;;;;;4139309;28;20045;-70
2020/12/24 10:26:22;;;;;;;0.82;0.43;;;6.60;99.90;;;;;;4138695;28;20049;-70
2020/12/24 10:28:22;;;;;;;1.33;0.88;;;6.70;99.90;;;;;;4137613;28;20093;-70
2020/12/24 10:30:23;;;;;;;0.95;0.73;;;6.60;99.90;;;;;;4137749;28;20117;-70
2020/12/24 10:32:24;;;;;;;1.85;0.88;;;6.60;99.90;;;;;;4134976;28;20548;-70
2020/12/24 10:34:24;;;;;;;0.75;0.68;;;6.70;99.90;;;;;;4138584;28;20061;-70
2020/12/24 10:36:25;;;;;;;1.45;0.88;;;6.70;99.90;;;;;;4141771;28;20049;-70
2020/12/24 10:38:27;;;;;;;0.82;0.70;;;6.70;99.90;;;;;;4140843;28;20057;-70
2020/12/24 10:40:27;;;;;;;1.05;0.90;;;6.70;99.90;;;;;;4137867;28;20134;-70
2020/12/24 10:42:28;;;;;;;1.95;0.90;;;6.70;99.90;;;;;;4140258;28;20572;-70